sensor_id;sensor_type;location;lat;lon;timestamp;P1;durP1;ratioP1;P2;durP2;ratioP2
10939;SDS011;5522;42.696;23.494;2024-03-17T00:00:37;9.75;;;6.63;;
10939;SDS011;5522;42.696;23.494;2024-03-17T00:03:05;10.52;;;6.40;;
10939;SDS011;5522;42.696;23.494;2024-03-17T00:05:33;13.48;;;7.35;;
10939;SDS011;5522;42.696;23.494;2024-03-17T00:07:59;9.20;;;6.38;;
10939;SDS011;5522;42.696;23.494;2024-03-17T00:10:25;11.55;;;7.15;;
10939;SDS011;5522;42.696;23.494;2024-03-17T00:12:51;12.13;;;7.63;;
10939;SDS011;5522;42.696;23.494;2024-03-17T00:15:19;12.13;;;6.43;;
10939;SDS011;5522;42.696;23.494;2024-03-17T00:17:45;10.57;;;6.97;;
10939;SDS011;5522;42.696;23.494;2024-03-17T00:20:12;11.77;;;6.93;;
10939;SDS011;5522;42.696;23.494;2024-03-17T00:22:44;10.70;;;6.93;;
10939;SDS011;5522;42.696;23.494;2024-03-17T00:25:11;14.25;;;7.00;;
10939;SDS011;5522;42.696;23.494;2024-03-17T00:27:37;11.52;;;7.65;;
10939;SDS011;5522;42.696;23.494;2024-03-17T00:30:06;13.18;;;7.95;;
10939;SDS011;5522;42.696;23.494;2024-03-17T00:32:37;11.00;;;7.68;;
10939;SDS011;5522;42.696;23.494;2024-03-17T00:35:04;12.23;;;7.05;;
10939;SDS011;5522;42.696;23.494;2024-03-17T00:37:31;13.82;;;7.88;;
10939;SDS011;5522;42.696;23.494;2024-03-17T00:39:58;11.90;;;7.50;;
10939;SDS011;5522;42.696;23.494;2024-03-17T00:42:24;11.20;;;7.78;;
10939;SDS011;5522;42.696;23.494;2024-03-17T00:44:51;15.05;;;8.77;;
10939;SDS011;5522;42.696;23.494;2024-03-17T00:47:17;10.15;;;7.20;;
10939;SDS011;5522;42.696;23.494;2024-03-17T00:49:45;11.63;;;7.95;;
10939;SDS011;5522;42.696;23.494;2024-03-17T00:52:12;12.05;;;8.05;;
10939;SDS011;5522;42.696;23.494;2024-03-17T00:54:39;14.13;;;7.97;;
10939;SDS011;5522;42.696;23.494;2024-03-17T00:57:06;13.27;;;8.88;;
10939;SDS011;5522;42.696;23.494;2024-03-17T00:59:32;15.40;;;9.45;;
10939;SDS011;5522;42.696;23.494;2024-03-17T01:01:59;15.70;;;8.57;;
10939;SDS011;5522;42.696;23.494;2024-03-17T01:04:25;12.32;;;8.77;;
10939;SDS011;5522;42.696;23.494;2024-03-17T01:06:53;14.57;;;9.05;;
10939;SDS011;5522;42.696;23.494;2024-03-17T01:09:19;13.77;;;8.85;;
10939;SDS011;5522;42.696;23.494;2024-03-17T01:11:45;13.13;;;8.63;;
10939;SDS011;5522;42.696;23.494;2024-03-17T01:14:11;14.65;;;8.45;;
10939;SDS011;5522;42.696;23.494;2024-03-17T01:16:38;15.15;;;9.38;;
10939;SDS011;5522;42.696;23.494;2024-03-17T01:19:04;13.45;;;9.13;;
10939;SDS011;5522;42.696;23.494;2024-03-17T01:21:30;16.20;;;9.55;;
10939;SDS011;5522;42.696;23.494;2024-03-17T01:23:58;16.50;;;9.65;;
10939;SDS011;5522;42.696;23.494;2024-03-17T01:26:25;17.55;;;10.52;;
10939;SDS011;5522;42.696;23.494;2024-03-17T01:28:50;13.88;;;9.45;;
10939;SDS011;5522;42.696;23.494;2024-03-17T01:31:17;14.48;;;9.25;;
10939;SDS011;5522;42.696;23.494;2024-03-17T01:33:43;19.27;;;9.85;;
10939;SDS011;5522;42.696;23.494;2024-03-17T01:36:11;16.58;;;9.85;;
10939;SDS011;5522;42.696;23.494;2024-03-17T01:38:37;17.60;;;9.52;;
10939;SDS011;5522;42.696;23.494;2024-03-17T01:41:05;18.08;;;10.68;;
10939;SDS011;5522;42.696;23.494;2024-03-17T01:43:32;20.75;;;11.00;;
10939;SDS011;5522;42.696;23.494;2024-03-17T01:45:59;19.98;;;11.90;;
10939;SDS011;5522;42.696;23.494;2024-03-17T01:48:26;20.20;;;12.50;;
10939;SDS011;5522;42.696;23.494;2024-03-17T01:50:53;20.60;;;12.43;;
10939;SDS011;5522;42.696;23.494;2024-03-17T01:53:21;26.30;;;13.50;;
10939;SDS011;5522;42.696;23.494;2024-03-17T01:55:50;28.50;;;14.90;;
10939;SDS011;5522;42.696;23.494;2024-03-17T01:58:21;30.25;;;16.38;;
10939;SDS011;5522;42.696;23.494;2024-03-17T02:00:51;42.25;;;19.35;;
10939;SDS011;5522;42.696;23.494;2024-03-17T02:03:17;37.15;;;18.33;;
10939;SDS011;5522;42.696;23.494;2024-03-17T02:05:44;32.83;;;17.02;;
10939;SDS011;5522;42.696;23.494;2024-03-17T02:08:10;30.77;;;16.92;;
10939;SDS011;5522;42.696;23.494;2024-03-17T02:10:37;30.80;;;17.45;;
10939;SDS011;5522;42.696;23.494;2024-03-17T02:13:03;29.15;;;16.40;;
10939;SDS011;5522;42.696;23.494;2024-03-17T02:15:32;25.90;;;15.82;;
10939;SDS011;5522;42.696;23.494;2024-03-17T02:17:59;26.25;;;15.68;;
10939;SDS011;5522;42.696;23.494;2024-03-17T02:20:25;26.10;;;15.23;;
10939;SDS011;5522;42.696;23.494;2024-03-17T02:23:07;36.15;;;20.80;;
10939;SDS011;5522;42.696;23.494;2024-03-17T02:25:34;35.72;;;20.02;;
10939;SDS011;5522;42.696;23.494;2024-03-17T02:28:00;39.08;;;22.98;;
10939;SDS011;5522;42.696;23.494;2024-03-17T02:30:27;29.55;;;17.95;;
10939;SDS011;5522;42.696;23.494;2024-03-17T02:32:53;25.75;;;16.77;;
10939;SDS011;5522;42.696;23.494;2024-03-17T02:35:20;25.77;;;15.27;;
10939;SDS011;5522;42.696;23.494;2024-03-17T02:37:47;39.35;;;16.30;;
10939;SDS011;5522;42.696;23.494;2024-03-17T02:40:15;38.92;;;16.25;;
10939;SDS011;5522;42.696;23.494;2024-03-17T02:42:42;36.78;;;15.25;;
10939;SDS011;5522;42.696;23.494;2024-03-17T02:45:10;31.13;;;15.00;;
10939;SDS011;5522;42.696;23.494;2024-03-17T02:47:37;30.40;;;14.07;;
10939;SDS011;5522;42.696;23.494;2024-03-17T02:50:05;25.33;;;13.18;;
10939;SDS011;5522;42.696;23.494;2024-03-17T02:52:32;19.70;;;11.23;;
10939;SDS011;5522;42.696;23.494;2024-03-17T02:54:59;24.75;;;12.88;;
10939;SDS011;5522;42.696;23.494;2024-03-17T02:57:28;23.00;;;11.48;;
10939;SDS011;5522;42.696;23.494;2024-03-17T02:59:56;31.38;;;17.17;;
10939;SDS011;5522;42.696;23.494;2024-03-17T03:02:22;64.55;;;34.97;;
10939;SDS011;5522;42.696;23.494;2024-03-17T03:04:49;51.63;;;24.38;;
10939;SDS011;5522;42.696;23.494;2024-03-17T03:07:16;48.83;;;23.95;;
10939;SDS011;5522;42.696;23.494;2024-03-17T03:09:43;42.13;;;24.38;;
10939;SDS011;5522;42.696;23.494;2024-03-17T03:12:10;42.15;;;21.27;;
10939;SDS011;5522;42.696;23.494;2024-03-17T03:14:38;37.97;;;20.65;;
10939;SDS011;5522;42.696;23.494;2024-03-17T03:17:05;33.85;;;17.77;;
10939;SDS011;5522;42.696;23.494;2024-03-17T03:19:32;32.55;;;18.05;;
10939;SDS011;5522;42.696;23.494;2024-03-17T03:21:59;33.03;;;17.05;;
10939;SDS011;5522;42.696;23.494;2024-03-17T03:24:26;30.55;;;17.27;;
10939;SDS011;5522;42.696;23.494;2024-03-17T03:26:53;31.35;;;18.33;;
10939;SDS011;5522;42.696;23.494;2024-03-17T03:29:19;33.28;;;18.67;;
10939;SDS011;5522;42.696;23.494;2024-03-17T03:31:47;30.08;;;17.15;;
10939;SDS011;5522;42.696;23.494;2024-03-17T03:34:14;28.80;;;18.80;;
10939;SDS011;5522;42.696;23.494;2024-03-17T03:36:41;31.42;;;19.00;;
10939;SDS011;5522;42.696;23.494;2024-03-17T03:39:08;34.05;;;18.63;;
10939;SDS011;5522;42.696;23.494;2024-03-17T03:41:36;29.23;;;18.13;;
10939;SDS011;5522;42.696;23.494;2024-03-17T03:44:04;38.10;;;19.58;;
10939;SDS011;5522;42.696;23.494;2024-03-17T03:46:31;28.52;;;14.32;;
10939;SDS011;5522;42.696;23.494;2024-03-17T03:48:59;32.17;;;18.08;;
10939;SDS011;5522;42.696;23.494;2024-03-17T03:51:26;31.73;;;19.42;;
10939;SDS011;5522;42.696;23.494;2024-03-17T03:53:52;30.42;;;17.90;;
10939;SDS011;5522;42.696;23.494;2024-03-17T03:56:19;27.33;;;15.50;;
10939;SDS011;5522;42.696;23.494;2024-03-17T03:58:46;28.25;;;16.25;;
10939;SDS011;5522;42.696;23.494;2024-03-17T04:01:14;25.98;;;15.30;;
10939;SDS011;5522;42.696;23.494;2024-03-17T04:03:46;21.77;;;13.20;;
10939;SDS011;5522;42.696;23.494;2024-03-17T04:06:15;21.60;;;13.15;;
10939;SDS011;5522;42.696;23.494;2024-03-17T04:08:42;22.92;;;12.10;;
10939;SDS011;5522;42.696;23.494;2024-03-17T04:11:08;16.83;;;10.30;;
10939;SDS011;5522;42.696;23.494;2024-03-17T04:13:36;20.05;;;10.13;;
10939;SDS011;5522;42.696;23.494;2024-03-17T04:16:03;16.83;;;9.70;;
10939;SDS011;5522;42.696;23.494;2024-03-17T04:18:31;14.45;;;9.80;;
10939;SDS011;5522;42.696;23.494;2024-03-17T04:21:01;17.45;;;9.93;;
10939;SDS011;5522;42.696;23.494;2024-03-17T04:23:30;16.20;;;9.05;;
10939;SDS011;5522;42.696;23.494;2024-03-17T04:25:58;17.00;;;9.68;;
10939;SDS011;5522;42.696;23.494;2024-03-17T04:28:26;11.40;;;8.43;;
10939;SDS011;5522;42.696;23.494;2024-03-17T04:30:53;14.02;;;8.80;;
10939;SDS011;5522;42.696;23.494;2024-03-17T04:33:19;12.23;;;8.68;;
10939;SDS011;5522;42.696;23.494;2024-03-17T04:35:46;16.83;;;11.25;;
10939;SDS011;5522;42.696;23.494;2024-03-17T04:38:13;22.02;;;12.18;;
10939;SDS011;5522;42.696;23.494;2024-03-17T04:40:42;20.08;;;12.43;;
10939;SDS011;5522;42.696;23.494;2024-03-17T04:43:09;19.45;;;13.02;;
10939;SDS011;5522;42.696;23.494;2024-03-17T04:45:36;22.02;;;12.27;;
10939;SDS011;5522;42.696;23.494;2024-03-17T04:48:03;22.33;;;12.38;;
10939;SDS011;5522;42.696;23.494;2024-03-17T04:50:30;21.42;;;13.20;;
10939;SDS011;5522;42.696;23.494;2024-03-17T04:52:57;33.10;;;18.17;;
10939;SDS011;5522;42.696;23.494;2024-03-17T04:55:24;23.90;;;14.80;;
10939;SDS011;5522;42.696;23.494;2024-03-17T04:57:52;21.52;;;13.75;;
10939;SDS011;5522;42.696;23.494;2024-03-17T05:00:19;25.20;;;14.82;;
10939;SDS011;5522;42.696;23.494;2024-03-17T05:02:46;26.85;;;14.52;;
10939;SDS011;5522;42.696;23.494;2024-03-17T05:05:13;23.60;;;14.07;;
10939;SDS011;5522;42.696;23.494;2024-03-17T05:07:40;25.10;;;14.05;;
10939;SDS011;5522;42.696;23.494;2024-03-17T05:10:07;23.55;;;14.07;;
10939;SDS011;5522;42.696;23.494;2024-03-17T05:12:33;23.88;;;13.73;;
10939;SDS011;5522;42.696;23.494;2024-03-17T05:15:02;22.10;;;13.45;;
10939;SDS011;5522;42.696;23.494;2024-03-17T05:17:30;20.40;;;13.48;;
10939;SDS011;5522;42.696;23.494;2024-03-17T05:19:57;18.75;;;12.32;;
10939;SDS011;5522;42.696;23.494;2024-03-17T05:22:24;14.43;;;11.00;;
10939;SDS011;5522;42.696;23.494;2024-03-17T05:24:50;18.33;;;11.13;;
10939;SDS011;5522;42.696;23.494;2024-03-17T05:27:18;12.82;;;9.52;;
10939;SDS011;5522;42.696;23.494;2024-03-17T05:29:45;17.67;;;9.32;;
10939;SDS011;5522;42.696;23.494;2024-03-17T05:32:13;11.05;;;8.48;;
10939;SDS011;5522;42.696;23.494;2024-03-17T05:34:40;9.93;;;6.68;;
10939;SDS011;5522;42.696;23.494;2024-03-17T05:37:08;10.93;;;7.50;;
10939;SDS011;5522;42.696;23.494;2024-03-17T05:39:34;12.05;;;7.60;;
10939;SDS011;5522;42.696;23.494;2024-03-17T05:42:01;10.75;;;6.90;;
10939;SDS011;5522;42.696;23.494;2024-03-17T05:44:29;13.90;;;8.52;;
10939;SDS011;5522;42.696;23.494;2024-03-17T05:47:05;13.40;;;6.65;;
10939;SDS011;5522;42.696;23.494;2024-03-17T05:49:34;8.32;;;6.00;;
10939;SDS011;5522;42.696;23.494;2024-03-17T05:52:01;14.77;;;5.75;;
10939;SDS011;5522;42.696;23.494;2024-03-17T05:54:28;8.88;;;5.13;;
10939;SDS011;5522;42.696;23.494;2024-03-17T05:56:55;6.95;;;5.68;;
10939;SDS011;5522;42.696;23.494;2024-03-17T05:59:22;6.70;;;4.95;;
10939;SDS011;5522;42.696;23.494;2024-03-17T06:01:48;5.72;;;5.15;;
10939;SDS011;5522;42.696;23.494;2024-03-17T06:04:15;7.13;;;4.38;;
10939;SDS011;5522;42.696;23.494;2024-03-17T06:06:44;8.93;;;5.30;;
10939;SDS011;5522;42.696;23.494;2024-03-17T06:09:11;6.88;;;5.07;;
10939;SDS011;5522;42.696;23.494;2024-03-17T06:11:41;13.82;;;10.32;;
10939;SDS011;5522;42.696;23.494;2024-03-17T06:14:08;6.43;;;5.15;;
10939;SDS011;5522;42.696;23.494;2024-03-17T06:16:37;8.88;;;5.13;;
10939;SDS011;5522;42.696;23.494;2024-03-17T06:19:03;4.97;;;4.57;;
10939;SDS011;5522;42.696;23.494;2024-03-17T06:21:30;6.85;;;5.55;;
10939;SDS011;5522;42.696;23.494;2024-03-17T06:23:58;6.30;;;5.47;;
10939;SDS011;5522;42.696;23.494;2024-03-17T06:26:25;7.00;;;4.57;;
10939;SDS011;5522;42.696;23.494;2024-03-17T06:28:52;5.47;;;4.88;;
10939;SDS011;5522;42.696;23.494;2024-03-17T06:31:19;55.70;;;33.25;;
10939;SDS011;5522;42.696;23.494;2024-03-17T06:33:46;23.50;;;15.40;;
10939;SDS011;5522;42.696;23.494;2024-03-17T06:36:14;14.77;;;11.18;;
10939;SDS011;5522;42.696;23.494;2024-03-17T06:38:41;13.60;;;11.43;;
10939;SDS011;5522;42.696;23.494;2024-03-17T06:41:09;14.20;;;10.88;;
10939;SDS011;5522;42.696;23.494;2024-03-17T06:43:37;11.07;;;8.90;;
10939;SDS011;5522;42.696;23.494;2024-03-17T06:46:04;10.75;;;9.68;;
10939;SDS011;5522;42.696;23.494;2024-03-17T06:48:32;8.75;;;7.85;;
10939;SDS011;5522;42.696;23.494;2024-03-17T06:51:00;8.55;;;7.18;;
10939;SDS011;5522;42.696;23.494;2024-03-17T06:53:26;8.48;;;7.65;;
10939;SDS011;5522;42.696;23.494;2024-03-17T06:55:54;8.07;;;6.90;;
10939;SDS011;5522;42.696;23.494;2024-03-17T06:58:22;9.57;;;6.95;;
10939;SDS011;5522;42.696;23.494;2024-03-17T07:00:52;7.10;;;6.40;;
10939;SDS011;5522;42.696;23.494;2024-03-17T07:03:20;16.38;;;7.63;;
10939;SDS011;5522;42.696;23.494;2024-03-17T07:05:50;9.85;;;7.45;;
10939;SDS011;5522;42.696;23.494;2024-03-17T07:08:20;8.05;;;6.68;;
10939;SDS011;5522;42.696;23.494;2024-03-17T07:10:57;8.70;;;7.78;;
10939;SDS011;5522;42.696;23.494;2024-03-17T07:13:27;7.15;;;6.45;;
10939;SDS011;5522;42.696;23.494;2024-03-17T07:16:04;7.30;;;6.70;;
10939;SDS011;5522;42.696;23.494;2024-03-17T07:18:32;6.80;;;6.18;;
10939;SDS011;5522;42.696;23.494;2024-03-17T07:21:00;9.98;;;7.20;;
10939;SDS011;5522;42.696;23.494;2024-03-17T07:23:29;7.70;;;6.78;;
10939;SDS011;5522;42.696;23.494;2024-03-17T07:25:57;7.32;;;6.68;;
10939;SDS011;5522;42.696;23.494;2024-03-17T07:28:27;8.27;;;7.47;;
10939;SDS011;5522;42.696;23.494;2024-03-17T07:30:55;9.48;;;7.63;;
10939;SDS011;5522;42.696;23.494;2024-03-17T07:33:22;7.32;;;6.63;;
10939;SDS011;5522;42.696;23.494;2024-03-17T07:35:52;8.50;;;7.45;;
10939;SDS011;5522;42.696;23.494;2024-03-17T07:38:22;7.40;;;6.72;;
10939;SDS011;5522;42.696;23.494;2024-03-17T07:40:57;8.77;;;7.90;;
10939;SDS011;5522;42.696;23.494;2024-03-17T07:43:25;9.60;;;8.05;;
10939;SDS011;5522;42.696;23.494;2024-03-17T07:45:58;8.57;;;7.53;;
10939;SDS011;5522;42.696;23.494;2024-03-17T07:48:25;6.88;;;6.25;;
10939;SDS011;5522;42.696;23.494;2024-03-17T07:50:54;8.68;;;6.45;;
10939;SDS011;5522;42.696;23.494;2024-03-17T07:53:21;7.72;;;6.03;;
10939;SDS011;5522;42.696;23.494;2024-03-17T07:55:56;8.38;;;7.32;;
10939;SDS011;5522;42.696;23.494;2024-03-17T07:58:24;8.25;;;6.68;;
10939;SDS011;5522;42.696;23.494;2024-03-17T08:00:51;7.15;;;6.45;;
10939;SDS011;5522;42.696;23.494;2024-03-17T08:03:19;7.07;;;6.25;;
10939;SDS011;5522;42.696;23.494;2024-03-17T08:05:49;7.13;;;6.43;;
10939;SDS011;5522;42.696;23.494;2024-03-17T08:08:17;5.07;;;4.55;;
10939;SDS011;5522;42.696;23.494;2024-03-17T08:10:44;5.47;;;4.93;;
10939;SDS011;5522;42.696;23.494;2024-03-17T08:13:13;6.55;;;5.88;;
10939;SDS011;5522;42.696;23.494;2024-03-17T08:15:41;7.88;;;7.07;;
10939;SDS011;5522;42.696;23.494;2024-03-17T08:18:09;8.38;;;6.75;;
10939;SDS011;5522;42.696;23.494;2024-03-17T08:20:38;6.80;;;5.45;;
10939;SDS011;5522;42.696;23.494;2024-03-17T08:23:05;5.55;;;5.05;;
10939;SDS011;5522;42.696;23.494;2024-03-17T08:25:32;5.65;;;4.63;;
10939;SDS011;5522;42.696;23.494;2024-03-17T08:27:59;4.80;;;4.47;;
10939;SDS011;5522;42.696;23.494;2024-03-17T08:30:26;5.97;;;4.88;;
10939;SDS011;5522;42.696;23.494;2024-03-17T08:32:53;10.18;;;4.60;;
10939;SDS011;5522;42.696;23.494;2024-03-17T08:35:20;4.93;;;4.05;;
10939;SDS011;5522;42.696;23.494;2024-03-17T08:37:48;4.10;;;3.83;;
10939;SDS011;5522;42.696;23.494;2024-03-17T08:40:16;4.15;;;3.80;;
10939;SDS011;5522;42.696;23.494;2024-03-17T08:42:43;3.45;;;3.15;;
10939;SDS011;5522;42.696;23.494;2024-03-17T08:45:10;5.40;;;3.75;;
10939;SDS011;5522;42.696;23.494;2024-03-17T08:47:37;4.10;;;3.80;;
10939;SDS011;5522;42.696;23.494;2024-03-17T08:50:04;3.35;;;3.10;;
10939;SDS011;5522;42.696;23.494;2024-03-17T08:52:33;3.35;;;3.05;;
10939;SDS011;5522;42.696;23.494;2024-03-17T08:55:01;3.83;;;3.58;;
10939;SDS011;5522;42.696;23.494;2024-03-17T08:57:29;3.40;;;3.20;;
10939;SDS011;5522;42.696;23.494;2024-03-17T08:59:56;3.58;;;3.20;;
10939;SDS011;5522;42.696;23.494;2024-03-17T09:02:23;2.35;;;2.25;;
10939;SDS011;5522;42.696;23.494;2024-03-17T09:04:49;3.72;;;3.33;;
10939;SDS011;5522;42.696;23.494;2024-03-17T09:07:16;3.38;;;3.17;;
10939;SDS011;5522;42.696;23.494;2024-03-17T09:09:43;4.97;;;3.67;;
10939;SDS011;5522;42.696;23.494;2024-03-17T09:12:11;3.42;;;3.22;;
10939;SDS011;5522;42.696;23.494;2024-03-17T09:14:38;4.55;;;4.00;;
10939;SDS011;5522;42.696;23.494;2024-03-17T09:17:06;4.82;;;4.10;;
10939;SDS011;5522;42.696;23.494;2024-03-17T09:19:33;2.97;;;2.88;;
10939;SDS011;5522;42.696;23.494;2024-03-17T09:21:59;3.13;;;2.92;;
10939;SDS011;5522;42.696;23.494;2024-03-17T09:24:26;3.63;;;3.40;;
10939;SDS011;5522;42.696;23.494;2024-03-17T09:26:53;4.93;;;3.80;;
10939;SDS011;5522;42.696;23.494;2024-03-17T09:29:21;2.78;;;2.60;;
10939;SDS011;5522;42.696;23.494;2024-03-17T09:31:49;2.35;;;2.10;;
10939;SDS011;5522;42.696;23.494;2024-03-17T09:34:16;2.70;;;2.60;;
10939;SDS011;5522;42.696;23.494;2024-03-17T09:36:43;2.22;;;2.13;;
10939;SDS011;5522;42.696;23.494;2024-03-17T09:39:10;3.90;;;2.40;;
10939;SDS011;5522;42.696;23.494;2024-03-17T09:41:39;3.03;;;2.83;;
10939;SDS011;5522;42.696;23.494;2024-03-17T09:44:09;7.57;;;3.47;;
10939;SDS011;5522;42.696;23.494;2024-03-17T09:46:40;3.33;;;3.05;;
10939;SDS011;5522;42.696;23.494;2024-03-17T09:49:09;3.45;;;3.15;;
10939;SDS011;5522;42.696;23.494;2024-03-17T09:51:41;2.90;;;2.80;;
10939;SDS011;5522;42.696;23.494;2024-03-17T09:54:13;2.78;;;2.67;;
10939;SDS011;5522;42.696;23.494;2024-03-17T09:56:43;3.10;;;2.90;;
10939;SDS011;5522;42.696;23.494;2024-03-17T09:59:10;7.03;;;3.80;;
10939;SDS011;5522;42.696;23.494;2024-03-17T10:01:37;3.75;;;3.45;;
10939;SDS011;5522;42.696;23.494;2024-03-17T10:04:05;4.28;;;3.88;;
10939;SDS011;5522;42.696;23.494;2024-03-17T10:06:35;3.65;;;2.97;;
10939;SDS011;5522;42.696;23.494;2024-03-17T10:09:13;3.38;;;2.67;;
10939;SDS011;5522;42.696;23.494;2024-03-17T10:11:46;34.45;;;24.40;;
10939;SDS011;5522;42.696;23.494;2024-03-17T10:14:15;5.20;;;4.78;;
10939;SDS011;5522;42.696;23.494;2024-03-17T10:16:43;2.47;;;2.28;;
10939;SDS011;5522;42.696;23.494;2024-03-17T10:19:12;2.28;;;2.03;;
10939;SDS011;5522;42.696;23.494;2024-03-17T10:21:40;2.08;;;1.50;;
10939;SDS011;5522;42.696;23.494;2024-03-17T10:24:08;1.63;;;1.52;;
10939;SDS011;5522;42.696;23.494;2024-03-17T10:26:37;3.78;;;2.45;;
10939;SDS011;5522;42.696;23.494;2024-03-17T10:29:13;2.17;;;1.73;;
10939;SDS011;5522;42.696;23.494;2024-03-17T10:31:46;3.65;;;2.05;;
10939;SDS011;5522;42.696;23.494;2024-03-17T10:34:15;1.55;;;1.45;;
10939;SDS011;5522;42.696;23.494;2024-03-17T10:36:43;2.75;;;2.55;;
10939;SDS011;5522;42.696;23.494;2024-03-17T10:39:17;1.98;;;1.77;;
10939;SDS011;5522;42.696;23.494;2024-03-17T10:41:54;1.08;;;1.08;;
10939;SDS011;5522;42.696;23.494;2024-03-17T10:44:22;1.08;;;1.05;;
10939;SDS011;5522;42.696;23.494;2024-03-17T10:46:49;1.67;;;0.57;;
10939;SDS011;5522;42.696;23.494;2024-03-17T10:49:20;2.50;;;0.73;;
10939;SDS011;5522;42.696;23.494;2024-03-17T10:51:49;3.35;;;0.50;;
10939;SDS011;5522;42.696;23.494;2024-03-17T10:54:23;0.50;;;0.50;;
10939;SDS011;5522;42.696;23.494;2024-03-17T10:56:53;1.48;;;0.50;;
10939;SDS011;5522;42.696;23.494;2024-03-17T10:59:23;1.20;;;0.60;;
10939;SDS011;5522;42.696;23.494;2024-03-17T11:01:58;8.15;;;1.38;;
10939;SDS011;5522;42.696;23.494;2024-03-17T11:04:29;0.60;;;0.60;;
10939;SDS011;5522;42.696;23.494;2024-03-17T11:06:56;1.65;;;1.30;;
10939;SDS011;5522;42.696;23.494;2024-03-17T11:09:25;0.50;;;0.50;;
10939;SDS011;5522;42.696;23.494;2024-03-17T11:11:53;0.93;;;0.70;;
10939;SDS011;5522;42.696;23.494;2024-03-17T11:14:20;1.55;;;0.75;;
10939;SDS011;5522;42.696;23.494;2024-03-17T11:16:47;1.38;;;1.33;;
10939;SDS011;5522;42.696;23.494;2024-03-17T11:19:15;1.50;;;1.00;;
10939;SDS011;5522;42.696;23.494;2024-03-17T11:21:43;1.63;;;1.02;;
10939;SDS011;5522;42.696;23.494;2024-03-17T11:24:18;0.50;;;0.50;;
10939;SDS011;5522;42.696;23.494;2024-03-17T11:26:46;0.50;;;0.50;;
10939;SDS011;5522;42.696;23.494;2024-03-17T11:29:26;1.95;;;0.50;;
10939;SDS011;5522;42.696;23.494;2024-03-17T11:31:53;1.95;;;0.50;;
10939;SDS011;5522;42.696;23.494;2024-03-17T11:34:34;1.75;;;0.75;;
10939;SDS011;5522;42.696;23.494;2024-03-17T11:37:03;1.10;;;1.10;;
10939;SDS011;5522;42.696;23.494;2024-03-17T11:39:46;2.83;;;1.40;;
10939;SDS011;5522;42.696;23.494;2024-03-17T11:42:18;2.63;;;0.80;;
10939;SDS011;5522;42.696;23.494;2024-03-17T11:44:54;1.65;;;1.20;;
10939;SDS011;5522;42.696;23.494;2024-03-17T11:47:32;1.65;;;1.05;;
10939;SDS011;5522;42.696;23.494;2024-03-17T11:50:01;2.05;;;1.10;;
10939;SDS011;5522;42.696;23.494;2024-03-17T11:52:30;2.13;;;1.50;;
10939;SDS011;5522;42.696;23.494;2024-03-17T11:54:57;3.13;;;1.40;;
10939;SDS011;5522;42.696;23.494;2024-03-17T11:57:24;1.27;;;1.17;;
10939;SDS011;5522;42.696;23.494;2024-03-17T11:59:52;1.50;;;1.10;;
10939;SDS011;5522;42.696;23.494;2024-03-17T12:02:19;2.25;;;1.00;;
10939;SDS011;5522;42.696;23.494;2024-03-17T12:04:47;1.50;;;1.23;;
10939;SDS011;5522;42.696;23.494;2024-03-17T12:07:14;2.97;;;1.10;;
10939;SDS011;5522;42.696;23.494;2024-03-17T12:09:43;2.15;;;1.10;;
10939;SDS011;5522;42.696;23.494;2024-03-17T12:12:11;0.85;;;0.85;;
10939;SDS011;5522;42.696;23.494;2024-03-17T12:14:43;0.93;;;0.80;;
10939;SDS011;5522;42.696;23.494;2024-03-17T12:17:09;0.90;;;0.90;;
10939;SDS011;5522;42.696;23.494;2024-03-17T12:19:38;0.77;;;0.77;;
10939;SDS011;5522;42.696;23.494;2024-03-17T12:22:05;0.80;;;0.80;;
10939;SDS011;5522;42.696;23.494;2024-03-17T12:24:33;1.88;;;0.70;;
10939;SDS011;5522;42.696;23.494;2024-03-17T12:27:01;1.50;;;0.60;;
10939;SDS011;5522;42.696;23.494;2024-03-17T12:29:32;1.52;;;1.08;;
10939;SDS011;5522;42.696;23.494;2024-03-17T12:32:01;1.73;;;0.85;;
10939;SDS011;5522;42.696;23.494;2024-03-17T12:34:31;1.38;;;0.70;;
10939;SDS011;5522;42.696;23.494;2024-03-17T12:36:58;1.13;;;0.90;;
10939;SDS011;5522;42.696;23.494;2024-03-17T12:39:25;4.07;;;0.77;;
10939;SDS011;5522;42.696;23.494;2024-03-17T12:42:03;1.40;;;0.75;;
10939;SDS011;5522;42.696;23.494;2024-03-17T12:44:32;0.95;;;0.80;;
10939;SDS011;5522;42.696;23.494;2024-03-17T12:46:59;2.03;;;0.80;;
10939;SDS011;5522;42.696;23.494;2024-03-17T12:49:28;0.68;;;0.68;;
10939;SDS011;5522;42.696;23.494;2024-03-17T12:51:54;1.13;;;0.70;;
10939;SDS011;5522;42.696;23.494;2024-03-17T12:54:21;1.95;;;0.77;;
10939;SDS011;5522;42.696;23.494;2024-03-17T12:56:49;0.90;;;0.85;;
10939;SDS011;5522;42.696;23.494;2024-03-17T12:59:42;0.70;;;0.70;;
10939;SDS011;5522;42.696;23.494;2024-03-17T13:02:26;0.90;;;0.90;;
10939;SDS011;5522;42.696;23.494;2024-03-17T13:07:48;1.25;;;1.00;;
10939;SDS011;5522;42.696;23.494;2024-03-17T13:10:16;1.10;;;1.00;;
10939;SDS011;5522;42.696;23.494;2024-03-17T13:12:43;2.22;;;1.08;;
10939;SDS011;5522;42.696;23.494;2024-03-17T13:15:12;1.10;;;0.95;;
10939;SDS011;5522;42.696;23.494;2024-03-17T13:17:40;1.05;;;1.00;;
10939;SDS011;5522;42.696;23.494;2024-03-17T13:20:08;4.38;;;1.02;;
10939;SDS011;5522;42.696;23.494;2024-03-17T13:22:40;1.63;;;1.52;;
10939;SDS011;5522;42.696;23.494;2024-03-17T13:25:13;2.10;;;1.20;;
10939;SDS011;5522;42.696;23.494;2024-03-17T13:27:42;2.05;;;1.50;;
10939;SDS011;5522;42.696;23.494;2024-03-17T13:30:10;0.90;;;0.90;;
10939;SDS011;5522;42.696;23.494;2024-03-17T13:32:39;2.72;;;1.95;;
10939;SDS011;5522;42.696;23.494;2024-03-17T13:35:10;1.25;;;1.23;;
10939;SDS011;5522;42.696;23.494;2024-03-17T13:37:41;1.63;;;1.33;;
10939;SDS011;5522;42.696;23.494;2024-03-17T13:40:08;1.17;;;1.17;;
10939;SDS011;5522;42.696;23.494;2024-03-17T13:42:37;9.07;;;1.83;;
10939;SDS011;5522;42.696;23.494;2024-03-17T13:45:04;1.70;;;1.70;;
10939;SDS011;5522;42.696;23.494;2024-03-17T13:47:36;2.05;;;1.95;;
10939;SDS011;5522;42.696;23.494;2024-03-17T13:50:04;1.67;;;1.58;;
10939;SDS011;5522;42.696;23.494;2024-03-17T13:52:36;2.60;;;2.40;;
10939;SDS011;5522;42.696;23.494;2024-03-17T13:55:03;2.00;;;1.90;;
10939;SDS011;5522;42.696;23.494;2024-03-17T13:57:31;4.18;;;1.88;;
10939;SDS011;5522;42.696;23.494;2024-03-17T13:59:58;2.88;;;1.70;;
10939;SDS011;5522;42.696;23.494;2024-03-17T14:02:25;1.92;;;1.73;;
10939;SDS011;5522;42.696;23.494;2024-03-17T14:04:52;1.83;;;1.55;;
10939;SDS011;5522;42.696;23.494;2024-03-17T14:07:20;2.28;;;2.08;;
10939;SDS011;5522;42.696;23.494;2024-03-17T14:09:47;2.00;;;1.65;;
10939;SDS011;5522;42.696;23.494;2024-03-17T14:12:13;2.72;;;2.00;;
10939;SDS011;5522;42.696;23.494;2024-03-17T14:14:41;2.00;;;1.90;;
10939;SDS011;5522;42.696;23.494;2024-03-17T14:17:08;3.45;;;2.08;;
10939;SDS011;5522;42.696;23.494;2024-03-17T14:19:35;1.60;;;1.60;;
10939;SDS011;5522;42.696;23.494;2024-03-17T14:22:02;2.40;;;2.20;;
10939;SDS011;5522;42.696;23.494;2024-03-17T14:24:30;2.75;;;2.30;;
10939;SDS011;5522;42.696;23.494;2024-03-17T14:26:56;2.67;;;1.88;;
10939;SDS011;5522;42.696;23.494;2024-03-17T14:29:23;2.35;;;2.25;;
10939;SDS011;5522;42.696;23.494;2024-03-17T14:31:50;2.00;;;1.90;;
10939;SDS011;5522;42.696;23.494;2024-03-17T14:34:17;2.58;;;2.38;;
10939;SDS011;5522;42.696;23.494;2024-03-17T14:36:43;3.08;;;2.88;;
10939;SDS011;5522;42.696;23.494;2024-03-17T14:39:10;2.20;;;2.10;;
10939;SDS011;5522;42.696;23.494;2024-03-17T14:41:38;3.20;;;2.75;;
10939;SDS011;5522;42.696;23.494;2024-03-17T14:44:05;2.63;;;2.42;;
10939;SDS011;5522;42.696;23.494;2024-03-17T14:46:33;2.78;;;1.85;;